JES3064 SARE-SABE
Flight info
| Callsign | JES3064 |
|---|---|
| Flight time | N/A |
| Altitude | 36000 |
| Route | KILIP2G KILIP UL793 GUA DCT PAGON PAGON8Q |
| Aircraft | A320/M-SDE3FGHIRWY/LB1 |
Departure
| Time | 2026-05-05 22:11 |
|---|---|
| Airport | Resistencia International Airport (SARE) |
Arrival
| Time | N/A |
|---|---|
| Airport | Aeroparque Jorge Newbery (SABE) |
| Time | Latitude | Longitude | Altitude | Speed | Heading |
|---|---|---|---|---|---|
| 2026-05-05 21:53 | -27.44624 | -59.04992 | 193 ft | 0 kts | 111° |
| 2026-05-05 22:02 | -27.44622 | -59.04996 | 205 ft | 3 kts | 111° |
| 2026-05-05 22:02 | -27.44616 | -59.05014 | 192 ft | 2 kts | 102° |
| 2026-05-05 22:02 | -27.44618 | -59.05032 | 192 ft | 2 kts | 30° |
| 2026-05-05 22:03 | -27.44634 | -59.05036 | 192 ft | 1 kts | 324° |
| 2026-05-05 22:06 | -27.44605 | -59.05060 | 195 ft | 9 kts | 323° |
| 2026-05-05 22:06 | -27.44590 | -59.05128 | 192 ft | 11 kts | 250° |
| 2026-05-05 22:06 | -27.44633 | -59.05203 | 207 ft | 12 kts | 236° |
| 2026-05-05 22:07 | -27.44684 | -59.05290 | 201 ft | 14 kts | 236° |
| 2026-05-05 22:07 | -27.44743 | -59.05389 | 207 ft | 16 kts | 236° |
| 2026-05-05 22:07 | -27.44808 | -59.05500 | 204 ft | 17 kts | 235° |
| 2026-05-05 22:07 | -27.44904 | -59.05577 | 207 ft | 18 kts | 198° |
| 2026-05-05 22:08 | -27.45036 | -59.05623 | 197 ft | 21 kts | 197° |
| 2026-05-05 22:08 | -27.45177 | -59.05697 | 200 ft | 24 kts | 208° |
| 2026-05-05 22:08 | -27.45340 | -59.05767 | 191 ft | 27 kts | 199° |
| 2026-05-05 22:08 | -27.45522 | -59.05838 | 196 ft | 29 kts | 199° |
| 2026-05-05 22:09 | -27.45719 | -59.05915 | 190 ft | 31 kts | 199° |
| 2026-05-05 22:09 | -27.45924 | -59.06007 | 192 ft | 32 kts | 201° |
| 2026-05-05 22:09 | -27.46093 | -59.06053 | 204 ft | 12 kts | 145° |
| 2026-05-05 22:09 | -27.46161 | -59.06048 | 199 ft | 10 kts | 237° |
| 2026-05-05 22:10 | -27.46139 | -59.06109 | 208 ft | 9 kts | 354° |
| 2026-05-05 22:10 | -27.46100 | -59.06082 | 202 ft | 9 kts | 23° |
| 2026-05-05 22:10 | -27.45775 | -59.05943 | 194 ft | 96 kts | 21° |
| 2026-05-05 22:10 | -27.44927 | -59.05576 | 198 ft | 164 kts | 21° |
| 2026-05-05 22:11 | -27.43694 | -59.05046 | 264 ft | 219 kts | 21° |
| 2026-05-05 22:11 | -27.42331 | -59.04460 | 1655 ft | 196 kts | 21° |
| 2026-05-05 22:11 | -27.40922 | -59.03855 | 2270 ft | 230 kts | 20° |
| 2026-05-05 22:11 | -27.39368 | -59.03190 | 2839 ft | 245 kts | 20° |
| 2026-05-05 22:12 | -27.37773 | -59.02427 | 3691 ft | 251 kts | 28° |
| 2026-05-05 22:12 | -27.36426 | -59.01166 | 4656 ft | 257 kts | 51° |
| 2026-05-05 22:12 | -27.35834 | -58.99237 | 5521 ft | 274 kts | 84° |
| 2026-05-05 22:12 | -27.36305 | -58.97109 | 6342 ft | 292 kts | 114° |
| 2026-05-05 22:13 | -27.37367 | -58.95106 | 7054 ft | 301 kts | 118° |
| 2026-05-05 22:13 | -27.38483 | -58.93081 | 7777 ft | 309 kts | 118° |
| 2026-05-05 22:13 | -27.39625 | -58.91001 | 8476 ft | 316 kts | 119° |
| 2026-05-05 22:13 | -27.40954 | -58.88999 | 9149 ft | 325 kts | 136° |
| 2026-05-05 22:14 | -27.42851 | -58.87607 | 9781 ft | 329 kts | 162° |
| 2026-05-05 22:14 | -27.45102 | -58.87097 | 10112 ft | 339 kts | 183° |
| 2026-05-05 22:14 | -27.47535 | -58.87108 | 10264 ft | 358 kts | 185° |
| 2026-05-05 22:14 | -27.50060 | -58.87146 | 10745 ft | 366 kts | 185° |
| 2026-05-05 22:15 | -27.52617 | -58.87181 | 11388 ft | 368 kts | 184° |
| 2026-05-05 22:15 | -27.55175 | -58.87205 | 12066 ft | 368 kts | 183° |
| 2026-05-05 22:15 | -27.57737 | -58.87221 | 12751 ft | 369 kts | 182° |
| 2026-05-05 22:15 | -27.60302 | -58.87233 | 13443 ft | 368 kts | 182° |
| 2026-05-05 22:16 | -27.62862 | -58.87243 | 14081 ft | 368 kts | 182° |
| 2026-05-05 22:16 | -27.65426 | -58.87256 | 14636 ft | 370 kts | 183° |
| 2026-05-05 22:16 | -27.67998 | -58.87273 | 15174 ft | 372 kts | 183° |
| 2026-05-05 22:16 | -27.70568 | -58.87290 | 15703 ft | 376 kts | 183° |
| 2026-05-05 22:17 | -27.73193 | -58.87309 | 16223 ft | 379 kts | 184° |
| 2026-05-05 22:17 | -27.75842 | -58.87329 | 16748 ft | 382 kts | 184° |
| 2026-05-05 22:17 | -27.78513 | -58.87346 | 17269 ft | 385 kts | 184° |
| 2026-05-05 22:17 | -27.81207 | -58.87363 | 17803 ft | 389 kts | 184° |
| 2026-05-05 22:18 | -27.83929 | -58.87378 | 18316 ft | 392 kts | 184° |
| 2026-05-05 22:18 | -27.86668 | -58.87394 | 18798 ft | 395 kts | 184° |
| 2026-05-05 22:18 | -27.89429 | -58.87409 | 19308 ft | 397 kts | 184° |
| 2026-05-05 22:18 | -27.92196 | -58.87425 | 19826 ft | 398 kts | 185° |
| 2026-05-05 22:19 | -27.94971 | -58.87442 | 20347 ft | 400 kts | 185° |
| 2026-05-05 22:19 | -27.97765 | -58.87457 | 20863 ft | 402 kts | 185° |
| 2026-05-05 22:19 | -28.00571 | -58.87471 | 21366 ft | 404 kts | 185° |
| 2026-05-05 22:19 | -28.03390 | -58.87490 | 21871 ft | 406 kts | 185° |
| 2026-05-05 22:20 | -28.06226 | -58.87509 | 22370 ft | 408 kts | 185° |
| 2026-05-05 22:20 | -28.09072 | -58.87527 | 22868 ft | 410 kts | 185° |
| 2026-05-05 22:20 | -28.11887 | -58.87544 | 23346 ft | 412 kts | 185° |
| 2026-05-05 22:20 | -28.14786 | -58.87563 | 23778 ft | 414 kts | 185° |
| 2026-05-05 22:21 | -28.17672 | -58.87580 | 24191 ft | 416 kts | 185° |
| 2026-05-05 22:21 | -28.20570 | -58.87597 | 24602 ft | 418 kts | 185° |